Time;durP1;ratioP1;P1;durP2;ratioP2;P2;SDS_P1;SDS_P2;PMS_P1;PMS_P2;Temp;Humidity;BMP_temperature;BMP_pressure;BME280_temperature;BME280_humidity;BME280_pressure;Samples;Min_cycle;Max_cycle;Signal;HPM_P1;HPM_P2
2023/09/16 00:02:22;;;;;;;8.70;4.78;;;;;;;;;;5102125;28;20027;-64
2023/09/16 00:04:48;;;;;;;6.90;4.82;;;;;;;;;;5103992;28;20373;-65
2023/09/16 00:07:15;;;;;;;6.93;4.32;;;;;;;;;;5106384;28;20094;-64
2023/09/16 00:09:41;;;;;;;8.27;4.57;;;;;;;;;;5098426;28;20023;-65
2023/09/16 00:12:08;;;;;;;6.43;4.55;;;;;;;;;;5103814;28;20386;-66
2023/09/16 00:14:34;;;;;;;7.60;4.82;;;;;;;;;;5105096;28;20020;-64
2023/09/16 00:17:03;;;;;;;6.82;4.65;;;;;;;;;;5104291;28;20467;-65
2023/09/16 00:19:30;;;;;;;8.52;4.90;;;;;;;;;;5102850;28;20031;-64
2023/09/16 00:21:57;;;;;;;7.90;5.38;;;;;;;;;;5106787;28;20032;-64
2023/09/16 00:24:23;;;;;;;6.35;5.05;;;;;;;;;;5107722;28;20087;-64
2023/09/16 00:26:49;;;;;;;6.45;5.00;;;;;;;;;;5107337;28;20059;-66
2023/09/16 00:29:16;;;;;;;7.90;4.25;;;;;;;;;;5103844;28;20562;-64
2023/09/16 00:31:42;;;;;;;6.45;4.72;;;;;;;;;;5104669;28;20023;-65
2023/09/16 00:34:08;;;;;;;5.07;4.22;;;;;;;;;;5087519;28;20027;-67
2023/09/16 00:36:34;;;;;;;7.82;4.53;;;;;;;;;;5106688;28;20098;-64
2023/09/16 00:39:01;;;;;;;8.35;4.43;;;;;;;;;;5114146;28;20031;-64
2023/09/16 00:41:30;;;;;;;6.47;3.92;;;;;;;;;;5106433;28;20040;-64
2023/09/16 00:43:56;;;;;;;12.32;4.43;;;;;;;;;;5097406;28;20521;-64
2023/09/16 00:46:22;;;;;;;7.45;4.47;;;;;;;;;;5091013;28;20038;-63
2023/09/16 00:48:49;;;;;;;7.30;4.13;;;;;;;;;;5103062;28;20555;-64
2023/09/16 00:51:15;;;;;;;6.25;4.22;;;;;;;;;;5105518;28;20031;-63
2023/09/16 00:53:43;;;;;;;4.45;3.58;;;;;;;;;;5106826;28;20024;-64
2023/09/16 00:56:09;;;;;;;4.20;3.13;;;;;;;;;;5089543;28;20027;-64
2023/09/16 00:58:36;;;;;;;4.47;3.40;;;;;;;;;;5107157;28;20027;-64
2023/09/16 01:01:02;;;;;;;6.72;3.58;;;;;;;;;;5109498;28;20031;-64
2023/09/16 01:03:29;;;;;;;5.45;2.97;;;;;;;;;;5106220;28;20141;-64
2023/09/16 01:05:55;;;;;;;6.00;3.20;;;;;;;;;;5110884;28;20042;-64
2023/09/16 01:08:22;;;;;;;3.83;3.03;;;;;;;;;;5106519;28;20491;-65
2023/09/16 01:10:48;;;;;;;4.18;3.08;;;;;;;;;;5100008;28;20069;-64
2023/09/16 01:13:15;;;;;;;5.22;2.92;;;;;;;;;;5104304;28;20054;-64
2023/09/16 01:15:52;;;;;;;4.05;2.90;;;;;;;;;;5104476;28;20088;-64
2023/09/16 01:18:22;;;;;;;4.47;2.97;;;;;;;;;;5100663;28;20423;-64
2023/09/16 01:20:49;;;;;;;3.47;2.65;;;;;;;;;;5106282;28;20032;-64
2023/09/16 01:23:19;;;;;;;5.95;2.65;;;;;;;;;;5111455;28;20027;-64
2023/09/16 01:25:45;;;;;;;4.18;2.95;;;;;;;;;;5093010;28;20019;-64
2023/09/16 01:28:11;;;;;;;5.15;3.42;;;;;;;;;;5099821;28;20403;-64
2023/09/16 01:30:40;;;;;;;3.13;2.75;;;;;;;;;;5095642;28;20439;-66
2023/09/16 01:33:13;;;;;;;4.35;2.90;;;;;;;;;;5094217;28;20051;-64
2023/09/16 01:35:41;;;;;;;5.00;3.03;;;;;;;;;;5100282;28;20510;-64
2023/09/16 01:38:08;;;;;;;4.25;2.97;;;;;;;;;;5106498;28;20088;-65
2023/09/16 01:40:34;;;;;;;4.22;3.33;;;;;;;;;;5107314;28;20498;-65
2023/09/16 01:43:09;;;;;;;3.53;2.72;;;;;;;;;;5100381;28;20211;-64
2023/09/16 01:45:48;;;;;;;4.72;3.25;;;;;;;;;;5109358;28;20034;-64
2023/09/16 01:48:17;;;;;;;4.50;2.88;;;;;;;;;;5102160;28;20118;-65
2023/09/16 01:50:44;;;;;;;4.97;2.90;;;;;;;;;;5101432;28;20020;-64
2023/09/16 01:53:10;;;;;;;6.60;3.40;;;;;;;;;;5089298;28;20399;-64
2023/09/16 01:55:37;;;;;;;5.50;3.05;;;;;;;;;;5105737;28;20389;-64
2023/09/16 01:58:08;;;;;;;4.43;3.00;;;;;;;;;;5105254;28;20027;-64
2023/09/16 02:00:34;;;;;;;3.20;2.53;;;;;;;;;;5101986;28;20164;-65
2023/09/16 02:03:00;;;;;;;6.53;2.85;;;;;;;;;;5106480;28;20116;-64
2023/09/16 02:05:29;;;;;;;3.78;2.50;;;;;;;;;;5091695;28;20028;-64
2023/09/16 02:07:57;;;;;;;3.45;2.35;;;;;;;;;;5103343;28;20589;-64
2023/09/16 02:10:24;;;;;;;7.10;3.20;;;;;;;;;;5086439;28;20076;-66
2023/09/16 02:12:50;;;;;;;3.95;2.88;;;;;;;;;;5101328;28;20046;-64
2023/09/16 02:15:16;;;;;;;2.63;2.38;;;;;;;;;;5102518;28;20550;-66
2023/09/16 02:17:42;;;;;;;5.80;2.90;;;;;;;;;;5103096;28;20088;-65
2023/09/16 02:20:12;;;;;;;3.05;2.65;;;;;;;;;;5107498;28;20028;-64
2023/09/16 02:22:39;;;;;;;3.40;2.58;;;;;;;;;;5106716;28;20399;-65
2023/09/16 02:25:05;;;;;;;2.92;2.60;;;;;;;;;;5101245;28;20020;-65
2023/09/16 02:27:32;;;;;;;4.80;2.97;;;;;;;;;;5104424;28;20073;-65
2023/09/16 02:29:58;;;;;;;3.53;2.45;;;;;;;;;;5074049;28;20032;-65
2023/09/16 02:32:24;;;;;;;2.90;2.45;;;;;;;;;;5100664;28;20040;-65
2023/09/16 02:34:50;;;;;;;2.83;2.50;;;;;;;;;;5105779;28;20051;-65
2023/09/16 02:37:16;;;;;;;4.53;2.40;;;;;;;;;;5101120;28;20028;-65
2023/09/16 02:39:42;;;;;;;2.88;2.53;;;;;;;;;;5107131;28;20020;-64
2023/09/16 02:42:09;;;;;;;5.30;3.03;;;;;;;;;;5102598;28;20024;-64
2023/09/16 02:44:35;;;;;;;4.63;3.13;;;;;;;;;;5106280;28;20102;-65
2023/09/16 02:47:01;;;;;;;4.72;2.70;;;;;;;;;;5097522;28;20042;-64
2023/09/16 02:49:29;;;;;;;3.90;2.20;;;;;;;;;;5103876;28;20103;-64
2023/09/16 02:51:55;;;;;;;3.28;2.28;;;;;;;;;;5091233;28;20032;-64
2023/09/16 02:54:21;;;;;;;2.92;2.50;;;;;;;;;;5098927;28;20054;-64
2023/09/16 02:56:47;;;;;;;7.63;2.88;;;;;;;;;;5100445;28;20031;-65
2023/09/16 02:59:13;;;;;;;2.83;2.50;;;;;;;;;;5083651;28;20105;-64
2023/09/16 03:01:40;;;;;;;4.40;2.90;;;;;;;;;;5105588;28;20433;-64
2023/09/16 03:04:06;;;;;;;3.47;2.60;;;;;;;;;;5103342;28;20077;-65
2023/09/16 03:06:32;;;;;;;5.47;2.63;;;;;;;;;;5100118;28;20103;-67
2023/09/16 03:08:58;;;;;;;6.18;2.67;;;;;;;;;;5099819;28;20026;-65
2023/09/16 03:11:24;;;;;;;3.78;2.85;;;;;;;;;;5102206;28;20069;-65
2023/09/16 03:13:50;;;;;;;5.13;2.92;;;;;;;;;;5098081;27;20035;-64
2023/09/16 03:16:20;;;;;;;5.85;2.40;;;;;;;;;;5104966;28;20067;-65
2023/09/16 03:18:47;;;;;;;2.53;2.30;;;;;;;;;;5095951;28;20605;-64
2023/09/16 03:21:14;;;;;;;3.22;2.42;;;;;;;;;;5099386;28;20028;-64
2023/09/16 03:23:40;;;;;;;3.58;2.33;;;;;;;;;;5099041;28;20414;-64
2023/09/16 03:26:07;;;;;;;5.00;2.78;;;;;;;;;;5103933;28;20019;-65
2023/09/16 03:28:34;;;;;;;4.80;2.95;;;;;;;;;;5101684;28;20123;-65
2023/09/16 03:31:00;;;;;;;3.70;2.50;;;;;;;;;;5104418;28;20534;-64
2023/09/16 03:33:26;;;;;;;4.38;3.05;;;;;;;;;;5083901;28;20024;-64
2023/09/16 03:35:52;;;;;;;3.92;2.47;;;;;;;;;;5067757;28;20445;-64
2023/09/16 03:38:18;;;;;;;4.03;2.70;;;;;;;;;;5083501;28;20024;-65
2023/09/16 03:40:45;;;;;;;5.25;2.95;;;;;;;;;;5091672;28;20069;-64
2023/09/16 03:43:11;;;;;;;3.72;2.58;;;;;;;;;;5084394;28;20036;-65
2023/09/16 03:45:37;;;;;;;4.55;2.63;;;;;;;;;;5101811;28;20031;-65
2023/09/16 03:48:03;;;;;;;2.60;2.38;;;;;;;;;;5096106;28;20033;-65
2023/09/16 03:50:30;;;;;;;2.70;2.20;;;;;;;;;;5100424;28;20023;-64
2023/09/16 03:52:56;;;;;;;2.72;2.40;;;;;;;;;;5099861;28;20193;-64
2023/09/16 03:55:22;;;;;;;2.83;2.13;;;;;;;;;;5105732;28;20027;-65
2023/09/16 03:57:48;;;;;;;2.80;2.47;;;;;;;;;;5095453;28;20042;-65
2023/09/16 04:00:15;;;;;;;6.20;3.17;;;;;;;;;;5101621;28;20380;-65
2023/09/16 04:02:41;;;;;;;3.42;2.22;;;;;;;;;;5107630;28;20096;-65
2023/09/16 04:05:07;;;;;;;2.90;2.25;;;;;;;;;;5105609;28;20675;-65
2023/09/16 04:07:34;;;;;;;2.78;2.30;;;;;;;;;;5105919;28;20135;-65
2023/09/16 04:10:00;;;;;;;2.70;2.05;;;;;;;;;;5107388;28;20023;-65
2023/09/16 04:12:27;;;;;;;3.10;2.28;;;;;;;;;;5103728;28;20024;-65
2023/09/16 04:14:53;;;;;;;4.18;2.50;;;;;;;;;;5106624;28;20551;-65
2023/09/16 04:17:20;;;;;;;2.80;2.13;;;;;;;;;;5101969;28;20161;-65
2023/09/16 04:19:46;;;;;;;4.35;2.30;;;;;;;;;;5102716;28;20115;-66
2023/09/16 04:22:13;;;;;;;4.75;2.50;;;;;;;;;;5105394;28;20031;-65
2023/09/16 04:24:39;;;;;;;3.65;2.38;;;;;;;;;;5108501;28;20055;-65
2023/09/16 04:27:05;;;;;;;4.30;2.30;;;;;;;;;;5106507;28;20027;-65
2023/09/16 04:29:31;;;;;;;4.93;2.30;;;;;;;;;;5102627;28;20031;-65
2023/09/16 04:31:57;;;;;;;4.25;2.40;;;;;;;;;;5103919;28;20841;-65
2023/09/16 04:34:23;;;;;;;3.55;2.50;;;;;;;;;;5110765;28;20391;-64
2023/09/16 04:36:49;;;;;;;5.35;2.58;;;;;;;;;;5094640;28;20118;-65
2023/09/16 04:39:23;;;;;;;4.15;2.10;;;;;;;;;;5102835;28;20024;-64
2023/09/16 04:41:53;;;;;;;3.75;2.33;;;;;;;;;;5102891;28;20039;-65
2023/09/16 04:44:20;;;;;;;5.97;2.40;;;;;;;;;;5108086;28;20118;-64
2023/09/16 04:46:49;;;;;;;3.75;2.40;;;;;;;;;;5101486;28;20024;-68
2023/09/16 04:49:15;;;;;;;4.53;2.53;;;;;;;;;;5103012;28;20031;-67
2023/09/16 04:51:41;;;;;;;3.65;2.28;;;;;;;;;;5103541;28;20023;-65
2023/09/16 04:54:11;;;;;;;3.05;2.38;;;;;;;;;;5104000;28;20036;-67
2023/09/16 04:56:40;;;;;;;3.13;2.50;;;;;;;;;;5106969;28;20045;-65
2023/09/16 04:59:07;;;;;;;3.55;2.60;;;;;;;;;;5103602;28;20087;-65
2023/09/16 05:01:33;;;;;;;2.78;2.40;;;;;;;;;;5101990;28;20038;-65
2023/09/16 05:03:59;;;;;;;5.60;2.65;;;;;;;;;;5104986;28;20529;-65
2023/09/16 05:06:26;;;;;;;4.80;2.70;;;;;;;;;;5104086;28;20114;-66
2023/09/16 05:08:54;;;;;;;2.67;2.38;;;;;;;;;;5102890;28;20138;-65
2023/09/16 05:11:20;;;;;;;4.13;2.15;;;;;;;;;;5104951;28;20016;-65
2023/09/16 05:13:46;;;;;;;4.05;2.60;;;;;;;;;;5101911;28;20028;-65
2023/09/16 05:16:13;;;;;;;2.65;2.40;;;;;;;;;;5106144;28;20125;-65
2023/09/16 05:18:39;;;;;;;3.30;2.35;;;;;;;;;;5101267;28;20051;-65
2023/09/16 05:21:05;;;;;;;4.60;2.50;;;;;;;;;;5074525;28;20123;-65
2023/09/16 05:23:33;;;;;;;3.47;2.38;;;;;;;;;;5104194;28;20053;-65
2023/09/16 05:26:00;;;;;;;4.05;2.28;;;;;;;;;;5104172;28;20023;-65
2023/09/16 05:28:27;;;;;;;3.33;2.30;;;;;;;;;;5104363;27;20043;-65
2023/09/16 05:30:57;;;;;;;5.57;2.30;;;;;;;;;;5105801;28;20415;-65
2023/09/16 05:33:24;;;;;;;3.00;2.30;;;;;;;;;;5102643;28;20019;-65
2023/09/16 05:35:51;;;;;;;3.97;2.40;;;;;;;;;;5104588;28;20554;-65
2023/09/16 05:38:17;;;;;;;3.90;2.35;;;;;;;;;;5081144;28;20043;-65
2023/09/16 05:40:43;;;;;;;2.90;2.33;;;;;;;;;;5096015;28;21385;-65
2023/09/16 05:43:09;;;;;;;4.35;2.30;;;;;;;;;;5105797;28;20086;-64
2023/09/16 05:45:36;;;;;;;3.95;2.47;;;;;;;;;;5106483;28;20031;-65
2023/09/16 05:48:04;;;;;;;5.30;2.60;;;;;;;;;;5075940;28;20478;-64
2023/09/16 05:50:30;;;;;;;3.63;2.63;;;;;;;;;;5102416;28;20047;-65
2023/09/16 05:52:56;;;;;;;2.90;2.30;;;;;;;;;;5101405;28;20501;-65
2023/09/16 05:55:23;;;;;;;3.67;2.45;;;;;;;;;;5102351;28;20030;-65
2023/09/16 05:57:49;;;;;;;4.35;2.50;;;;;;;;;;5101572;28;20036;-65
2023/09/16 06:00:16;;;;;;;3.20;2.45;;;;;;;;;;5103996;28;20028;-65
2023/09/16 06:02:42;;;;;;;4.25;2.60;;;;;;;;;;5097399;28;20076;-68
2023/09/16 06:05:08;;;;;;;6.15;2.75;;;;;;;;;;5104693;28;20373;-65
2023/09/16 06:07:36;;;;;;;4.55;2.88;;;;;;;;;;5078499;28;20030;-65
2023/09/16 06:10:02;;;;;;;3.20;2.50;;;;;;;;;;5097505;28;20492;-65
2023/09/16 06:12:28;;;;;;;5.97;2.95;;;;;;;;;;5100076;28;20027;-67
2023/09/16 06:14:54;;;;;;;5.15;2.80;;;;;;;;;;5101170;28;20035;-65
2023/09/16 06:17:22;;;;;;;6.55;4.10;;;;;;;;;;5097715;28;20035;-65
2023/09/16 06:19:52;;;;;;;5.82;3.22;;;;;;;;;;5101049;28;20035;-66
2023/09/16 06:22:18;;;;;;;6.22;3.00;;;;;;;;;;5100381;28;20030;-65
2023/09/16 06:24:44;;;;;;;4.68;2.90;;;;;;;;;;5081707;28;20472;-65
2023/09/16 06:27:11;;;;;;;4.13;3.08;;;;;;;;;;5098707;28;20019;-64
2023/09/16 06:29:37;;;;;;;4.13;2.97;;;;;;;;;;5098613;28;20463;-67
2023/09/16 06:32:03;;;;;;;5.43;2.88;;;;;;;;;;5096553;28;20024;-65
2023/09/16 06:34:29;;;;;;;4.15;2.80;;;;;;;;;;5080749;28;20031;-65
2023/09/16 06:36:57;;;;;;;3.92;3.03;;;;;;;;;;5100394;28;20081;-64
2023/09/16 06:39:33;;;;;;;5.32;3.58;;;;;;;;;;5049522;28;20193;-67
2023/09/16 06:41:59;;;;;;;3.28;2.70;;;;;;;;;;5036029;28;20397;-66
2023/09/16 06:44:25;;;;;;;7.18;2.70;;;;;;;;;;5032449;28;20451;-65
2023/09/16 06:46:51;;;;;;;4.70;2.83;;;;;;;;;;5033775;28;20485;-66
2023/09/16 06:49:17;;;;;;;4.22;2.90;;;;;;;;;;5030723;28;20041;-66
2023/09/16 06:51:43;;;;;;;3.90;2.90;;;;;;;;;;5046652;28;20029;-66
2023/09/16 06:54:10;;;;;;;4.43;3.10;;;;;;;;;;5036512;28;20041;-66
2023/09/16 06:56:36;;;;;;;5.00;3.03;;;;;;;;;;5038938;28;20033;-66
2023/09/16 06:59:02;;;;;;;4.07;2.88;;;;;;;;;;5042082;28;20056;-66
2023/09/16 07:01:28;;;;;;;6.40;3.10;;;;;;;;;;5041993;28;20040;-66
2023/09/16 07:03:54;;;;;;;5.50;2.90;;;;;;;;;;5041989;28;20125;-66
2023/09/16 07:06:20;;;;;;;4.80;2.85;;;;;;;;;;5041801;28;20090;-66
2023/09/16 07:08:46;;;;;;;4.22;2.88;;;;;;;;;;5039025;28;20029;-66
2023/09/16 07:11:14;;;;;;;4.18;2.80;;;;;;;;;;5032712;28;20564;-66
2023/09/16 07:13:41;;;;;;;3.22;2.60;;;;;;;;;;5031477;28;20496;-66
2023/09/16 07:16:07;;;;;;;3.47;2.70;;;;;;;;;;5035385;28;20040;-67
2023/09/16 07:18:35;;;;;;;5.10;3.47;;;;;;;;;;5038653;28;20497;-67
2023/09/16 07:21:01;;;;;;;4.80;2.92;;;;;;;;;;5035929;28;20018;-66
2023/09/16 07:23:27;;;;;;;3.60;2.63;;;;;;;;;;5037959;28;20025;-66
2023/09/16 07:25:57;;;;;;;3.97;2.78;;;;;;;;;;5041941;28;20036;-66
2023/09/16 07:28:26;;;;;;;17.52;4.00;;;;;;;;;;5039060;28;20044;-66
2023/09/16 07:30:53;;;;;;;5.47;2.55;;;;;;;;;;5035848;28;20072;-66
2023/09/16 07:33:19;;;;;;;4.13;2.53;;;;;;;;;;5042546;28;20084;-67
2023/09/16 07:35:45;;;;;;;5.10;2.65;;;;;;;;;;5037060;28;20036;-67
2023/09/16 07:38:11;;;;;;;4.88;3.03;;;;;;;;;;5031750;28;20056;-66
2023/09/16 07:40:38;;;;;;;4.13;2.75;;;;;;;;;;5035876;28;20029;-67
2023/09/16 07:43:08;;;;;;;5.90;3.38;;;;;;;;;;5031077;28;20017;-66
2023/09/16 07:45:34;;;;;;;5.45;2.80;;;;;;;;;;5037948;28;20155;-66
2023/09/16 07:48:00;;;;;;;5.32;2.70;;;;;;;;;;5029858;28;20025;-67
2023/09/16 07:50:26;;;;;;;3.58;2.55;;;;;;;;;;5029749;28;20044;-67
2023/09/16 07:52:53;;;;;;;8.52;2.97;;;;;;;;;;5021636;28;20122;-67
2023/09/16 07:55:19;;;;;;;6.53;2.72;;;;;;;;;;5022286;28;20034;-66
2023/09/16 07:57:45;;;;;;;6.50;3.33;;;;;;;;;;5019217;28;20044;-67
2023/09/16 08:00:11;;;;;;;4.20;2.70;;;;;;;;;;5020204;28;20022;-67
2023/09/16 08:02:37;;;;;;;4.40;2.75;;;;;;;;;;5024172;28;20750;-67
2023/09/16 08:05:04;;;;;;;4.85;2.88;;;;;;;;;;5023126;28;20026;-67
2023/09/16 08:07:30;;;;;;;2.88;2.55;;;;;;;;;;5024544;28;20393;-67
2023/09/16 08:09:56;;;;;;;4.68;2.63;;;;;;;;;;5019429;28;20108;-67
2023/09/16 08:12:23;;;;;;;4.75;3.00;;;;;;;;;;5023315;28;20041;-67
2023/09/16 08:14:49;;;;;;;5.82;2.65;;;;;;;;;;5020427;28;20393;-67
2023/09/16 08:17:15;;;;;;;3.42;2.40;;;;;;;;;;5027327;28;20056;-67
2023/09/16 08:19:41;;;;;;;3.80;2.55;;;;;;;;;;5051911;28;20336;-67
2023/09/16 08:22:08;;;;;;;3.47;2.63;;;;;;;;;;5024632;28;20398;-67
2023/09/16 08:24:34;;;;;;;2.70;2.28;;;;;;;;;;5021770;28;20108;-66
2023/09/16 08:27:01;;;;;;;4.85;2.67;;;;;;;;;;5020071;28;20052;-67
2023/09/16 08:29:27;;;;;;;4.60;2.70;;;;;;;;;;5022368;28;20032;-66
2023/09/16 08:31:53;;;;;;;3.40;2.75;;;;;;;;;;5019887;28;20567;-67
2023/09/16 08:34:19;;;;;;;3.17;2.75;;;;;;;;;;5011329;28;20032;-67
2023/09/16 08:36:45;;;;;;;5.28;2.60;;;;;;;;;;5014993;28;20056;-65
2023/09/16 08:39:11;;;;;;;3.67;2.65;;;;;;;;;;5018192;28;20053;-66
2023/09/16 08:41:42;;;;;;;4.18;2.35;;;;;;;;;;5015935;28;20313;-67
2023/09/16 08:44:09;;;;;;;5.45;2.70;;;;;;;;;;5027388;28;20017;-67
2023/09/16 08:46:39;;;;;;;4.05;2.17;;;;;;;;;;5011936;28;20033;-67
2023/09/16 08:49:08;;;;;;;4.70;2.50;;;;;;;;;;5013410;28;20030;-68
2023/09/16 08:51:36;;;;;;;2.78;2.30;;;;;;;;;;5015421;28;20071;-66
2023/09/16 08:54:04;;;;;;;5.43;3.50;;;;;;;;;;5027853;28;20061;-66
2023/09/16 08:56:31;;;;;;;4.43;2.22;;;;;;;;;;5022299;28;20039;-66
2023/09/16 08:58:58;;;;;;;3.05;2.30;;;;;;;;;;5025079;28;20032;-70
2023/09/16 09:01:25;;;;;;;2.83;2.05;;;;;;;;;;5019906;28;20095;-70
2023/09/16 09:03:52;;;;;;;3.80;2.38;;;;;;;;;;5020360;28;20033;-70
2023/09/16 09:06:19;;;;;;;4.53;2.42;;;;;;;;;;5031568;28;20017;-70
2023/09/16 09:08:45;;;;;;;5.40;2.28;;;;;;;;;;5030421;28;20397;-70
2023/09/16 09:11:14;;;;;;;5.20;2.28;;;;;;;;;;5020292;28;20049;-71
2023/09/16 09:13:42;;;;;;;2.42;2.10;;;;;;;;;;5023233;28;20653;-70
2023/09/16 09:16:09;;;;;;;4.75;2.83;;;;;;;;;;5024428;28;20501;-70
2023/09/16 09:18:36;;;;;;;3.90;2.28;;;;;;;;;;5032888;28;20033;-70
2023/09/16 09:21:04;;;;;;;8.32;2.40;;;;;;;;;;5029287;28;20023;-68
2023/09/16 09:23:31;;;;;;;4.13;2.13;;;;;;;;;;5040324;28;20079;-70
2023/09/16 09:25:57;;;;;;;3.83;2.33;;;;;;;;;;5022292;28;20064;-69
2023/09/16 09:28:23;;;;;;;3.55;2.17;;;;;;;;;;5024573;28;20041;-70
2023/09/16 09:30:50;;;;;;;3.25;2.20;;;;;;;;;;5024906;28;20493;-70
2023/09/16 09:33:19;;;;;;;3.92;2.20;;;;;;;;;;5023056;28;20033;-70
2023/09/16 09:35:46;;;;;;;3.53;2.20;;;;;;;;;;5020226;28;20124;-70
2023/09/16 09:38:12;;;;;;;2.90;2.33;;;;;;;;;;5018255;28;20084;-70
2023/09/16 09:40:38;;;;;;;3.67;2.10;;;;;;;;;;5023972;28;20029;-71
2023/09/16 09:43:04;;;;;;;2.15;1.80;;;;;;;;;;5025138;28;20106;-70
2023/09/16 09:45:35;;;;;;;4.38;2.00;;;;;;;;;;5020244;28;20037;-70
2023/09/16 09:48:01;;;;;;;3.95;1.60;;;;;;;;;;5022234;28;20437;-70
2023/09/16 09:50:30;;;;;;;5.10;2.25;;;;;;;;;;5025681;28;20094;-70
2023/09/16 09:52:56;;;;;;;2.85;2.10;;;;;;;;;;5023953;28;20021;-70
2023/09/16 09:55:24;;;;;;;2.17;1.80;;;;;;;;;;5024658;28;20044;-70
2023/09/16 09:57:51;;;;;;;12.02;2.30;;;;;;;;;;5021442;28;20029;-70
2023/09/16 10:00:18;;;;;;;3.05;1.98;;;;;;;;;;5024613;28;20017;-70
2023/09/16 10:02:45;;;;;;;2.28;1.92;;;;;;;;;;5023893;28;20430;-70
2023/09/16 10:05:15;;;;;;;4.40;2.35;;;;;;;;;;5020740;28;20203;-70
2023/09/16 10:07:42;;;;;;;2.85;1.80;;;;;;;;;;5024616;28;20026;-70
2023/09/16 10:10:22;;;;;;;3.00;1.90;;;;;;;;;;5023859;28;20505;-70
2023/09/16 10:12:49;;;;;;;2.78;1.88;;;;;;;;;;5033888;28;20474;-70
2023/09/16 10:15:15;;;;;;;2.67;1.60;;;;;;;;;;5036089;28;20102;-70
2023/09/16 10:17:42;;;;;;;2.58;1.60;;;;;;;;;;5022697;28;20087;-71
2023/09/16 10:20:10;;;;;;;3.05;1.85;;;;;;;;;;5021895;28;20367;-70
2023/09/16 10:22:37;;;;;;;1.77;1.67;;;;;;;;;;5025893;28;20058;-70
2023/09/16 10:25:03;;;;;;;2.10;1.90;;;;;;;;;;5023130;28;20052;-71
2023/09/16 10:27:32;;;;;;;2.67;1.67;;;;;;;;;;5023088;28;20028;-70
2023/09/16 10:30:00;;;;;;;4.95;2.05;;;;;;;;;;5012352;28;20028;-70
2023/09/16 10:32:26;;;;;;;2.78;2.00;;;;;;;;;;5020888;28;20366;-71
2023/09/16 10:34:53;;;;;;;2.05;1.83;;;;;;;;;;5030863;28;20505;-71
2023/09/16 10:37:19;;;;;;;2.55;1.90;;;;;;;;;;5020816;28;20034;-71
2023/09/16 10:39:49;;;;;;;2.85;2.00;;;;;;;;;;5027691;28;21049;-70
2023/09/16 10:42:19;;;;;;;4.90;1.83;;;;;;;;;;5025352;28;20477;-70
2023/09/16 10:44:48;;;;;;;5.45;1.88;;;;;;;;;;5014696;28;20416;-70
2023/09/16 10:47:16;;;;;;;2.75;1.83;;;;;;;;;;5021896;28;20385;-70
2023/09/16 10:49:44;;;;;;;2.78;1.52;;;;;;;;;;5018379;28;21114;-71
2023/09/16 10:52:10;;;;;;;2.90;1.80;;;;;;;;;;5015024;28;20017;-71
2023/09/16 10:54:44;;;;;;;7.60;2.50;;;;;;;;;;5029469;28;20037;-70
2023/09/16 10:57:21;;;;;;;3.58;1.65;;;;;;;;;;5018700;28;20081;-73
2023/09/16 10:59:49;;;;;;;6.13;1.85;;;;;;;;;;5021847;28;20537;-71
2023/09/16 11:02:37;;;;;;;6.78;2.00;;;;;;;;;;5022685;28;20021;-71
2023/09/16 11:05:03;;;;;;;1.92;1.58;;;;;;;;;;5022468;28;20029;-70
2023/09/16 11:07:30;;;;;;;4.30;1.75;;;;;;;;;;5021000;28;20033;-70
2023/09/16 11:09:57;;;;;;;3.00;1.83;;;;;;;;;;5021345;28;20096;-70
2023/09/16 11:12:23;;;;;;;3.78;2.05;;;;;;;;;;5019586;28;20021;-70
2023/09/16 11:14:49;;;;;;;5.07;2.05;;;;;;;;;;5018630;28;20473;-70
2023/09/16 11:17:15;;;;;;;6.72;1.88;;;;;;;;;;5014084;28;20030;-71
2023/09/16 11:19:42;;;;;;;4.50;1.70;;;;;;;;;;5017370;28;20025;-70
2023/09/16 11:22:11;;;;;;;6.35;1.88;;;;;;;;;;5013675;28;20036;-73
2023/09/16 11:24:37;;;;;;;3.42;1.85;;;;;;;;;;5022786;28;20096;-70
2023/09/16 11:27:04;;;;;;;4.90;2.03;;;;;;;;;;5019462;28;20030;-71
2023/09/16 11:29:33;;;;;;;2.67;1.90;;;;;;;;;;5022309;28;20562;-71
2023/09/16 11:32:01;;;;;;;3.92;2.40;;;;;;;;;;5022272;28;20033;-70
2023/09/16 11:34:28;;;;;;;2.05;1.80;;;;;;;;;;5016022;28;20057;-70
2023/09/16 11:36:55;;;;;;;3.90;1.80;;;;;;;;;;5016151;28;20029;-70
2023/09/16 11:39:24;;;;;;;4.70;2.47;;;;;;;;;;5021900;28;20517;-71
2023/09/16 11:41:52;;;;;;;3.88;2.00;;;;;;;;;;5020444;28;20076;-70
2023/09/16 11:44:19;;;;;;;4.28;2.35;;;;;;;;;;5019452;28;20029;-70
2023/09/16 11:46:47;;;;;;;6.00;2.60;;;;;;;;;;5022674;28;20033;-70
2023/09/16 11:49:15;;;;;;;5.30;2.17;;;;;;;;;;5034214;28;20083;-71
2023/09/16 11:51:41;;;;;;;4.88;2.40;;;;;;;;;;5020218;28;20025;-70
2023/09/16 11:54:07;;;;;;;4.10;2.70;;;;;;;;;;5023577;28;20494;-71
2023/09/16 11:56:36;;;;;;;3.47;1.95;;;;;;;;;;5026962;28;20116;-70
2023/09/16 11:59:06;;;;;;;5.25;2.38;;;;;;;;;;5021750;28;20116;-70
2023/09/16 12:01:36;;;;;;;2.80;1.98;;;;;;;;;;5021512;28;20022;-70
2023/09/16 12:04:04;;;;;;;3.30;2.10;;;;;;;;;;5022089;28;20409;-71
2023/09/16 12:06:31;;;;;;;5.28;2.00;;;;;;;;;;5019247;28;20100;-70
2023/09/16 12:08:58;;;;;;;4.90;2.10;;;;;;;;;;5018556;28;20493;-71
2023/09/16 12:11:25;;;;;;;4.85;2.10;;;;;;;;;;5020336;28;20109;-70
2023/09/16 12:13:53;;;;;;;3.17;2.10;;;;;;;;;;5018384;28;20018;-71
2023/09/16 12:16:19;;;;;;;3.08;2.03;;;;;;;;;;5019222;28;20389;-70
2023/09/16 12:18:46;;;;;;;4.35;2.08;;;;;;;;;;5014994;28;20254;-71
2023/09/16 12:21:13;;;;;;;1.95;1.75;;;;;;;;;;5018129;28;20348;-71
2023/09/16 12:23:42;;;;;;;3.75;1.88;;;;;;;;;;5020118;28;20036;-71
2023/09/16 12:26:12;;;;;;;3.25;1.73;;;;;;;;;;5021938;28;20032;-71
2023/09/16 12:28:39;;;;;;;4.78;2.08;;;;;;;;;;5019839;28;20030;-71
2023/09/16 12:31:12;;;;;;;2.88;2.00;;;;;;;;;;5020160;28;20064;-71
2023/09/16 12:33:39;;;;;;;3.33;1.92;;;;;;;;;;5022549;28;20104;-71
2023/09/16 12:36:06;;;;;;;5.38;2.10;;;;;;;;;;5023664;28;21205;-72
2023/09/16 12:38:33;;;;;;;3.55;1.90;;;;;;;;;;5022518;28;20052;-72
2023/09/16 12:40:59;;;;;;;4.20;2.08;;;;;;;;;;5023399;28;20393;-72
2023/09/16 12:43:26;;;;;;;2.58;1.73;;;;;;;;;;5025097;28;20022;-74
2023/09/16 12:45:53;;;;;;;3.47;2.60;;;;;;;;;;5021403;28;20033;-72
2023/09/16 12:48:20;;;;;;;2.45;1.70;;;;;;;;;;5017644;28;20125;-71
2023/09/16 12:50:46;;;;;;;3.65;1.80;;;;;;;;;;5021428;28;20033;-72
2023/09/16 12:53:13;;;;;;;3.45;1.88;;;;;;;;;;5016423;28;20040;-72
2023/09/16 12:55:41;;;;;;;2.90;1.98;;;;;;;;;;5021109;28;20120;-71
2023/09/16 12:58:10;;;;;;;1.63;1.52;;;;;;;;;;5019978;28;20018;-72
2023/09/16 13:00:36;;;;;;;2.53;1.98;;;;;;;;;;5018876;28;20270;-72
2023/09/16 13:03:03;;;;;;;3.40;1.90;;;;;;;;;;5005487;28;20041;-71
2023/09/16 13:05:29;;;;;;;3.20;1.85;;;;;;;;;;5009893;28;20055;-66
2023/09/16 13:07:57;;;;;;;3.00;1.63;;;;;;;;;;5014559;28;20484;-65
2023/09/16 13:10:23;;;;;;;4.20;1.85;;;;;;;;;;5018693;28;20485;-66
2023/09/16 13:12:50;;;;;;;2.63;1.95;;;;;;;;;;5018836;28;20052;-65
2023/09/16 13:15:20;;;;;;;3.60;1.85;;;;;;;;;;5017171;28;20493;-66
2023/09/16 13:17:49;;;;;;;3.78;2.05;;;;;;;;;;5009714;28;20543;-69
2023/09/16 13:20:18;;;;;;;2.97;2.08;;;;;;;;;;5017993;28;20036;-65
2023/09/16 13:22:47;;;;;;;3.13;2.13;;;;;;;;;;5018637;28;20591;-64
2023/09/16 13:25:29;;;;;;;3.25;1.80;;;;;;;;;;5018006;28;20481;-67
2023/09/16 13:27:56;;;;;;;3.35;2.00;;;;;;;;;;5013907;28;20040;-66
2023/09/16 13:30:22;;;;;;;4.90;2.28;;;;;;;;;;5014935;28;20025;-67
2023/09/16 13:32:52;;;;;;;6.13;3.38;;;;;;;;;;5015006;28;20485;-66
2023/09/16 13:35:18;;;;;;;4.40;1.85;;;;;;;;;;5015942;28;20171;-66
2023/09/16 13:37:44;;;;;;;2.65;1.90;;;;;;;;;;5020317;28;20383;-66
2023/09/16 13:40:12;;;;;;;3.78;2.00;;;;;;;;;;5015671;28;20108;-65
2023/09/16 13:42:38;;;;;;;2.58;2.05;;;;;;;;;;5014948;28;20517;-66
2023/09/16 13:45:04;;;;;;;2.67;1.92;;;;;;;;;;5021817;28;20039;-66
2023/09/16 13:47:30;;;;;;;4.18;2.03;;;;;;;;;;5015653;28;20169;-68
2023/09/16 13:49:56;;;;;;;2.25;2.00;;;;;;;;;;5020482;28;20095;-70
2023/09/16 13:52:22;;;;;;;4.47;2.00;;;;;;;;;;5015546;28;20502;-71
2023/09/16 13:54:48;;;;;;;2.70;1.95;;;;;;;;;;5013072;28;20057;-71
2023/09/16 13:57:15;;;;;;;4.70;1.90;;;;;;;;;;5020391;28;20029;-70
2023/09/16 13:59:41;;;;;;;5.18;1.85;;;;;;;;;;5025698;28;20037;-71
2023/09/16 14:02:09;;;;;;;6.63;2.13;;;;;;;;;;5019851;28;20736;-71
2023/09/16 14:04:35;;;;;;;4.15;2.10;;;;;;;;;;5013071;28;20055;-71
2023/09/16 14:07:01;;;;;;;7.53;1.80;;;;;;;;;;5016528;28;20030;-70
2023/09/16 14:09:27;;;;;;;2.33;2.10;;;;;;;;;;5018963;28;20037;-70
2023/09/16 14:11:53;;;;;;;2.65;2.00;;;;;;;;;;5015466;28;20062;-70
2023/09/16 14:14:19;;;;;;;2.70;2.00;;;;;;;;;;5016545;28;20026;-71
2023/09/16 14:16:45;;;;;;;2.47;2.08;;;;;;;;;;5018908;28;20400;-70
2023/09/16 14:19:13;;;;;;;3.40;2.03;;;;;;;;;;5021380;28;20053;-71
2023/09/16 14:21:39;;;;;;;2.92;2.00;;;;;;;;;;5019012;28;20096;-71
2023/09/16 14:24:05;;;;;;;5.07;2.15;;;;;;;;;;5017308;28;20032;-71
2023/09/16 14:26:34;;;;;;;5.85;2.10;;;;;;;;;;5020075;28;20030;-70
2023/09/16 14:29:00;;;;;;;4.10;2.42;;;;;;;;;;5020028;28;20487;-71
2023/09/16 14:31:26;;;;;;;5.93;2.38;;;;;;;;;;5022756;28;20104;-70
2023/09/16 14:33:52;;;;;;;3.72;1.95;;;;;;;;;;5024994;28;20037;-71
2023/09/16 14:36:18;;;;;;;3.33;2.00;;;;;;;;;;5023397;28;20029;-71
2023/09/16 14:38:44;;;;;;;3.70;2.25;;;;;;;;;;5011499;28;20435;-70
2023/09/16 14:41:10;;;;;;;8.45;2.38;;;;;;;;;;5018965;28;20025;-71
2023/09/16 14:43:36;;;;;;;3.20;1.90;;;;;;;;;;5020471;28;20028;-71